sensor_id;sensor_type;location;lat;lon;timestamp;temperature;humidity
18658;DHT22;9458;50.942;5.074;2023-05-10T00:01:57;13.60;99.90
18658;DHT22;9458;50.942;5.074;2023-05-10T00:04:44;13.60;99.90
18658;DHT22;9458;50.942;5.074;2023-05-10T00:07:16;13.70;99.90
18658;DHT22;9458;50.942;5.074;2023-05-10T00:09:49;13.70;99.90
18658;DHT22;9458;50.942;5.074;2023-05-10T00:12:17;13.80;99.90
18658;DHT22;9458;50.942;5.074;2023-05-10T00:14:49;13.70;99.90
18658;DHT22;9458;50.942;5.074;2023-05-10T00:17:19;13.70;99.90
18658;DHT22;9458;50.942;5.074;2023-05-10T00:19:56;13.70;99.90
18658;DHT22;9458;50.942;5.074;2023-05-10T00:22:30;13.70;99.90
18658;DHT22;9458;50.942;5.074;2023-05-10T00:24:58;13.60;99.90
18658;DHT22;9458;50.942;5.074;2023-05-10T00:27:26;13.70;99.90
18658;DHT22;9458;50.942;5.074;2023-05-10T00:29:56;13.60;99.90
18658;DHT22;9458;50.942;5.074;2023-05-10T00:32:30;13.60;99.90
18658;DHT22;9458;50.942;5.074;2023-05-10T00:35:02;13.50;99.90
18658;DHT22;9458;50.942;5.074;2023-05-10T00:37:33;13.50;99.90
18658;DHT22;9458;50.942;5.074;2023-05-10T00:40:02;13.50;99.90
18658;DHT22;9458;50.942;5.074;2023-05-10T00:42:39;13.40;99.90
18658;DHT22;9458;50.942;5.074;2023-05-10T00:45:08;13.30;99.90
18658;DHT22;9458;50.942;5.074;2023-05-10T00:47:37;13.20;99.90
18658;DHT22;9458;50.942;5.074;2023-05-10T00:50:15;13.10;99.90
18658;DHT22;9458;50.942;5.074;2023-05-10T00:52:53;13.10;99.90
18658;DHT22;9458;50.942;5.074;2023-05-10T00:55:21;13.00;99.90
18658;DHT22;9458;50.942;5.074;2023-05-10T00:57:52;13.00;99.90
18658;DHT22;9458;50.942;5.074;2023-05-10T01:00:24;13.00;99.90
18658;DHT22;9458;50.942;5.074;2023-05-10T01:02:54;13.00;99.90
18658;DHT22;9458;50.942;5.074;2023-05-10T01:05:29;13.00;99.90
18658;DHT22;9458;50.942;5.074;2023-05-10T01:07:57;13.10;99.90
18658;DHT22;9458;50.942;5.074;2023-05-10T01:10:25;13.20;99.90
18658;DHT22;9458;50.942;5.074;2023-05-10T01:12:55;13.20;99.90
18658;DHT22;9458;50.942;5.074;2023-05-10T01:15:23;13.30;99.90
18658;DHT22;9458;50.942;5.074;2023-05-10T01:17:54;13.20;99.90
18658;DHT22;9458;50.942;5.074;2023-05-10T01:20:23;13.20;99.90
18658;DHT22;9458;50.942;5.074;2023-05-10T01:23:23;13.20;99.90
18658;DHT22;9458;50.942;5.074;2023-05-10T01:29:09;13.20;99.90
18658;DHT22;9458;50.942;5.074;2023-05-10T01:35:03;13.30;99.90
18658;DHT22;9458;50.942;5.074;2023-05-10T01:37:42;13.40;99.90
18658;DHT22;9458;50.942;5.074;2023-05-10T01:40:30;13.30;99.90
18658;DHT22;9458;50.942;5.074;2023-05-10T01:43:14;13.30;99.90
18658;DHT22;9458;50.942;5.074;2023-05-10T01:45:57;13.30;99.90
18658;DHT22;9458;50.942;5.074;2023-05-10T01:48:31;13.30;99.90
18658;DHT22;9458;50.942;5.074;2023-05-10T01:51:02;13.30;99.90
18658;DHT22;9458;50.942;5.074;2023-05-10T01:53:34;13.30;99.90
18658;DHT22;9458;50.942;5.074;2023-05-10T01:56:05;13.30;99.90
18658;DHT22;9458;50.942;5.074;2023-05-10T01:58:36;13.40;99.90
18658;DHT22;9458;50.942;5.074;2023-05-10T02:01:07;13.30;99.90
18658;DHT22;9458;50.942;5.074;2023-05-10T02:03:40;13.30;99.90
18658;DHT22;9458;50.942;5.074;2023-05-10T02:06:13;13.40;99.90
18658;DHT22;9458;50.942;5.074;2023-05-10T02:08:41;13.30;99.90
18658;DHT22;9458;50.942;5.074;2023-05-10T02:11:13;13.30;99.90
18658;DHT22;9458;50.942;5.074;2023-05-10T02:13:42;13.20;99.90
18658;DHT22;9458;50.942;5.074;2023-05-10T02:16:24;13.20;99.90
18658;DHT22;9458;50.942;5.074;2023-05-10T02:18:54;13.20;99.90
18658;DHT22;9458;50.942;5.074;2023-05-10T02:21:26;13.20;99.90
18658;DHT22;9458;50.942;5.074;2023-05-10T02:23:57;13.10;99.90
18658;DHT22;9458;50.942;5.074;2023-05-10T02:26:26;13.20;99.90
18658;DHT22;9458;50.942;5.074;2023-05-10T02:28:54;13.20;99.90
18658;DHT22;9458;50.942;5.074;2023-05-10T02:31:23;13.20;99.90
18658;DHT22;9458;50.942;5.074;2023-05-10T02:33:51;13.30;99.90
18658;DHT22;9458;50.942;5.074;2023-05-10T02:36:20;13.40;99.90
18658;DHT22;9458;50.942;5.074;2023-05-10T02:38:51;13.50;99.90
18658;DHT22;9458;50.942;5.074;2023-05-10T02:41:23;13.50;99.90
18658;DHT22;9458;50.942;5.074;2023-05-10T02:43:55;13.40;99.90
18658;DHT22;9458;50.942;5.074;2023-05-10T02:46:24;13.50;99.90
18658;DHT22;9458;50.942;5.074;2023-05-10T02:48:54;13.50;99.90
18658;DHT22;9458;50.942;5.074;2023-05-10T02:51:30;13.40;99.90
18658;DHT22;9458;50.942;5.074;2023-05-10T02:54:09;13.40;99.90
18658;DHT22;9458;50.942;5.074;2023-05-10T02:56:43;13.40;99.90
18658;DHT22;9458;50.942;5.074;2023-05-10T02:59:14;13.40;99.90
18658;DHT22;9458;50.942;5.074;2023-05-10T03:01:41;13.40;99.90
18658;DHT22;9458;50.942;5.074;2023-05-10T03:04:11;13.50;99.90
18658;DHT22;9458;50.942;5.074;2023-05-10T03:06:40;13.40;99.90
18658;DHT22;9458;50.942;5.074;2023-05-10T03:09:11;13.30;99.90
18658;DHT22;9458;50.942;5.074;2023-05-10T03:11:49;13.40;99.90
18658;DHT22;9458;50.942;5.074;2023-05-10T03:14:39;13.40;99.90
18658;DHT22;9458;50.942;5.074;2023-05-10T03:17:15;13.40;99.90
18658;DHT22;9458;50.942;5.074;2023-05-10T03:19:52;13.40;99.90
18658;DHT22;9458;50.942;5.074;2023-05-10T03:22:24;13.40;99.90
18658;DHT22;9458;50.942;5.074;2023-05-10T03:24:56;13.50;99.90
18658;DHT22;9458;50.942;5.074;2023-05-10T03:27:27;13.40;99.90
18658;DHT22;9458;50.942;5.074;2023-05-10T03:29:55;13.40;99.90
18658;DHT22;9458;50.942;5.074;2023-05-10T03:32:26;13.40;99.90
18658;DHT22;9458;50.942;5.074;2023-05-10T03:34:56;13.50;99.90
18658;DHT22;9458;50.942;5.074;2023-05-10T03:37:23;13.50;99.90
18658;DHT22;9458;50.942;5.074;2023-05-10T03:39:50;13.50;99.90
18658;DHT22;9458;50.942;5.074;2023-05-10T03:42:19;13.40;99.90
18658;DHT22;9458;50.942;5.074;2023-05-10T03:44:47;13.40;99.90
18658;DHT22;9458;50.942;5.074;2023-05-10T03:47:15;13.50;99.90
18658;DHT22;9458;50.942;5.074;2023-05-10T03:49:44;13.50;99.90
18658;DHT22;9458;50.942;5.074;2023-05-10T03:52:12;13.60;99.90
18658;DHT22;9458;50.942;5.074;2023-05-10T03:54:40;13.50;99.90
18658;DHT22;9458;50.942;5.074;2023-05-10T03:57:07;13.50;99.90
18658;DHT22;9458;50.942;5.074;2023-05-10T03:59:36;13.50;99.90
18658;DHT22;9458;50.942;5.074;2023-05-10T04:02:04;13.50;99.90
18658;DHT22;9458;50.942;5.074;2023-05-10T04:04:32;13.50;99.90
18658;DHT22;9458;50.942;5.074;2023-05-10T04:07:00;13.50;99.90
18658;DHT22;9458;50.942;5.074;2023-05-10T04:09:27;13.50;99.90
18658;DHT22;9458;50.942;5.074;2023-05-10T04:11:55;13.50;99.90
18658;DHT22;9458;50.942;5.074;2023-05-10T04:14:22;13.50;99.90
18658;DHT22;9458;50.942;5.074;2023-05-10T04:16:51;13.50;99.90
18658;DHT22;9458;50.942;5.074;2023-05-10T04:19:19;13.40;99.90
18658;DHT22;9458;50.942;5.074;2023-05-10T04:21:46;12.80;99.90
18658;DHT22;9458;50.942;5.074;2023-05-10T04:24:14;13.50;99.90
18658;DHT22;9458;50.942;5.074;2023-05-10T04:26:42;13.50;99.90
18658;DHT22;9458;50.942;5.074;2023-05-10T04:29:10;13.50;99.90
18658;DHT22;9458;50.942;5.074;2023-05-10T04:31:38;13.50;99.90
18658;DHT22;9458;50.942;5.074;2023-05-10T04:34:06;13.50;99.90
18658;DHT22;9458;50.942;5.074;2023-05-10T04:36:34;13.40;99.90
18658;DHT22;9458;50.942;5.074;2023-05-10T04:39:02;13.40;99.90
18658;DHT22;9458;50.942;5.074;2023-05-10T04:41:30;13.40;99.90
18658;DHT22;9458;50.942;5.074;2023-05-10T04:43:57;13.50;99.90
18658;DHT22;9458;50.942;5.074;2023-05-10T04:46:25;13.40;99.90
18658;DHT22;9458;50.942;5.074;2023-05-10T04:48:52;13.40;99.90
18658;DHT22;9458;50.942;5.074;2023-05-10T04:51:21;13.40;99.90
18658;DHT22;9458;50.942;5.074;2023-05-10T04:53:49;13.50;99.90
18658;DHT22;9458;50.942;5.074;2023-05-10T04:56:16;13.50;99.90
18658;DHT22;9458;50.942;5.074;2023-05-10T04:58:44;13.40;99.90
18658;DHT22;9458;50.942;5.074;2023-05-10T05:01:11;13.40;99.90
18658;DHT22;9458;50.942;5.074;2023-05-10T05:03:39;13.40;99.90
18658;DHT22;9458;50.942;5.074;2023-05-10T05:06:08;13.40;99.90
18658;DHT22;9458;50.942;5.074;2023-05-10T05:08:37;13.30;99.90
18658;DHT22;9458;50.942;5.074;2023-05-10T05:11:04;13.30;99.90
18658;DHT22;9458;50.942;5.074;2023-05-10T05:13:35;13.30;99.90
18658;DHT22;9458;50.942;5.074;2023-05-10T05:16:02;13.40;99.90
18658;DHT22;9458;50.942;5.074;2023-05-10T05:18:29;13.30;99.90
18658;DHT22;9458;50.942;5.074;2023-05-10T05:20:57;13.30;99.90
18658;DHT22;9458;50.942;5.074;2023-05-10T05:23:24;13.30;99.90
18658;DHT22;9458;50.942;5.074;2023-05-10T05:25:54;13.30;99.90
18658;DHT22;9458;50.942;5.074;2023-05-10T05:28:27;13.30;99.90
18658;DHT22;9458;50.942;5.074;2023-05-10T05:30:58;13.20;99.90
18658;DHT22;9458;50.942;5.074;2023-05-10T05:33:26;13.20;99.90
18658;DHT22;9458;50.942;5.074;2023-05-10T05:35:54;13.10;99.90
18658;DHT22;9458;50.942;5.074;2023-05-10T05:38:23;13.20;99.90
18658;DHT22;9458;50.942;5.074;2023-05-10T05:40:50;13.20;99.90
18658;DHT22;9458;50.942;5.074;2023-05-10T05:43:20;13.20;99.90
18658;DHT22;9458;50.942;5.074;2023-05-10T05:45:47;13.30;99.90
18658;DHT22;9458;50.942;5.074;2023-05-10T05:48:14;13.40;99.90
18658;DHT22;9458;50.942;5.074;2023-05-10T05:50:41;13.40;99.90
18658;DHT22;9458;50.942;5.074;2023-05-10T05:53:09;13.30;99.90
18658;DHT22;9458;50.942;5.074;2023-05-10T05:55:37;13.40;99.90
18658;DHT22;9458;50.942;5.074;2023-05-10T05:58:05;13.40;99.90
18658;DHT22;9458;50.942;5.074;2023-05-10T06:00:34;13.50;99.90
18658;DHT22;9458;50.942;5.074;2023-05-10T06:03:06;13.50;99.90
18658;DHT22;9458;50.942;5.074;2023-05-10T06:05:37;13.50;99.90
18658;DHT22;9458;50.942;5.074;2023-05-10T06:08:15;13.40;99.90
18658;DHT22;9458;50.942;5.074;2023-05-10T06:10:43;13.40;99.90
18658;DHT22;9458;50.942;5.074;2023-05-10T06:13:11;13.40;99.90
18658;DHT22;9458;50.942;5.074;2023-05-10T06:15:42;13.40;99.90
18658;DHT22;9458;50.942;5.074;2023-05-10T06:18:10;13.40;99.90
18658;DHT22;9458;50.942;5.074;2023-05-10T06:20:37;13.50;99.90
18658;DHT22;9458;50.942;5.074;2023-05-10T06:23:05;13.50;99.90
18658;DHT22;9458;50.942;5.074;2023-05-10T06:25:32;13.50;99.90
18658;DHT22;9458;50.942;5.074;2023-05-10T06:28:00;13.40;99.90
18658;DHT22;9458;50.942;5.074;2023-05-10T06:30:30;13.50;99.90
18658;DHT22;9458;50.942;5.074;2023-05-10T06:33:10;13.50;99.90
18658;DHT22;9458;50.942;5.074;2023-05-10T06:35:37;13.60;99.90
18658;DHT22;9458;50.942;5.074;2023-05-10T06:38:05;13.60;99.90
18658;DHT22;9458;50.942;5.074;2023-05-10T06:40:32;13.70;99.90
18658;DHT22;9458;50.942;5.074;2023-05-10T06:43:00;13.60;99.90
18658;DHT22;9458;50.942;5.074;2023-05-10T06:45:27;13.70;99.90
18658;DHT22;9458;50.942;5.074;2023-05-10T06:47:55;13.60;99.90
18658;DHT22;9458;50.942;5.074;2023-05-10T06:50:24;13.60;99.90
18658;DHT22;9458;50.942;5.074;2023-05-10T06:52:51;13.70;99.90
18658;DHT22;9458;50.942;5.074;2023-05-10T06:55:19;13.70;99.90
18658;DHT22;9458;50.942;5.074;2023-05-10T06:57:49;13.70;99.90
18658;DHT22;9458;50.942;5.074;2023-05-10T07:00:17;13.60;99.90
18658;DHT22;9458;50.942;5.074;2023-05-10T07:02:53;13.60;99.90
18658;DHT22;9458;50.942;5.074;2023-05-10T07:05:27;13.70;99.90
18658;DHT22;9458;50.942;5.074;2023-05-10T07:07:55;13.60;99.90
18658;DHT22;9458;50.942;5.074;2023-05-10T07:10:22;13.70;99.90
18658;DHT22;9458;50.942;5.074;2023-05-10T07:12:51;13.80;99.90
18658;DHT22;9458;50.942;5.074;2023-05-10T07:15:18;13.80;99.90
18658;DHT22;9458;50.942;5.074;2023-05-10T07:17:45;13.80;99.90
18658;DHT22;9458;50.942;5.074;2023-05-10T07:20:14;13.80;99.90
18658;DHT22;9458;50.942;5.074;2023-05-10T07:22:43;13.80;99.90
18658;DHT22;9458;50.942;5.074;2023-05-10T07:25:11;13.90;99.90
18658;DHT22;9458;50.942;5.074;2023-05-10T07:27:39;13.90;99.90
18658;DHT22;9458;50.942;5.074;2023-05-10T07:30:08;13.90;99.90
18658;DHT22;9458;50.942;5.074;2023-05-10T07:32:35;14.00;99.90
18658;DHT22;9458;50.942;5.074;2023-05-10T07:35:03;14.00;99.90
18658;DHT22;9458;50.942;5.074;2023-05-10T07:37:31;14.10;99.90
18658;DHT22;9458;50.942;5.074;2023-05-10T07:40:00;14.10;99.90
18658;DHT22;9458;50.942;5.074;2023-05-10T07:42:28;14.30;99.90
18658;DHT22;9458;50.942;5.074;2023-05-10T07:44:55;14.30;99.90
18658;DHT22;9458;50.942;5.074;2023-05-10T07:47:23;14.30;99.90
18658;DHT22;9458;50.942;5.074;2023-05-10T07:49:51;14.50;99.90
18658;DHT22;9458;50.942;5.074;2023-05-10T07:52:18;14.50;99.90
18658;DHT22;9458;50.942;5.074;2023-05-10T07:54:45;14.50;99.90
18658;DHT22;9458;50.942;5.074;2023-05-10T07:57:15;14.50;99.90
18658;DHT22;9458;50.942;5.074;2023-05-10T07:59:43;14.50;99.90
18658;DHT22;9458;50.942;5.074;2023-05-10T08:02:11;14.40;99.90
18658;DHT22;9458;50.942;5.074;2023-05-10T08:04:39;14.30;99.90
18658;DHT22;9458;50.942;5.074;2023-05-10T08:07:06;14.00;99.90
18658;DHT22;9458;50.942;5.074;2023-05-10T08:09:34;13.90;99.90
18658;DHT22;9458;50.942;5.074;2023-05-10T08:12:01;13.90;99.90
18658;DHT22;9458;50.942;5.074;2023-05-10T08:14:30;13.90;99.90
18658;DHT22;9458;50.942;5.074;2023-05-10T08:16:58;13.80;99.90
18658;DHT22;9458;50.942;5.074;2023-05-10T08:19:25;13.70;99.90
18658;DHT22;9458;50.942;5.074;2023-05-10T08:21:52;13.80;99.90
18658;DHT22;9458;50.942;5.074;2023-05-10T08:24:21;13.70;99.90
18658;DHT22;9458;50.942;5.074;2023-05-10T08:26:51;13.90;99.90
18658;DHT22;9458;50.942;5.074;2023-05-10T08:29:19;14.00;99.90
18658;DHT22;9458;50.942;5.074;2023-05-10T08:31:48;13.90;99.90
18658;DHT22;9458;50.942;5.074;2023-05-10T08:34:15;13.90;99.90
18658;DHT22;9458;50.942;5.074;2023-05-10T08:36:42;13.90;99.90
18658;DHT22;9458;50.942;5.074;2023-05-10T08:39:10;13.90;99.90
18658;DHT22;9458;50.942;5.074;2023-05-10T08:41:38;14.00;99.90
18658;DHT22;9458;50.942;5.074;2023-05-10T08:44:08;14.00;99.90
18658;DHT22;9458;50.942;5.074;2023-05-10T08:46:37;14.00;99.90
18658;DHT22;9458;50.942;5.074;2023-05-10T08:49:07;14.10;99.90
18658;DHT22;9458;50.942;5.074;2023-05-10T08:51:36;14.00;99.90
18658;DHT22;9458;50.942;5.074;2023-05-10T08:54:07;13.90;99.90
18658;DHT22;9458;50.942;5.074;2023-05-10T08:56:34;14.00;99.90
18658;DHT22;9458;50.942;5.074;2023-05-10T08:59:02;13.90;99.90
18658;DHT22;9458;50.942;5.074;2023-05-10T09:01:31;13.90;99.90
18658;DHT22;9458;50.942;5.074;2023-05-10T09:04:01;13.90;99.90
18658;DHT22;9458;50.942;5.074;2023-05-10T09:06:31;13.90;99.90
18658;DHT22;9458;50.942;5.074;2023-05-10T09:08:59;13.90;99.90
18658;DHT22;9458;50.942;5.074;2023-05-10T09:11:27;14.00;99.90
18658;DHT22;9458;50.942;5.074;2023-05-10T09:13:55;14.00;99.90
18658;DHT22;9458;50.942;5.074;2023-05-10T09:16:24;14.20;99.90
18658;DHT22;9458;50.942;5.074;2023-05-10T09:18:51;14.40;99.90
18658;DHT22;9458;50.942;5.074;2023-05-10T09:21:19;14.40;99.90
18658;DHT22;9458;50.942;5.074;2023-05-10T09:23:49;14.40;99.90
18658;DHT22;9458;50.942;5.074;2023-05-10T09:26:22;14.60;99.90
18658;DHT22;9458;50.942;5.074;2023-05-10T09:28:51;14.70;99.90
18658;DHT22;9458;50.942;5.074;2023-05-10T09:31:20;14.80;99.90
18658;DHT22;9458;50.942;5.074;2023-05-10T09:33:48;14.80;99.90
18658;DHT22;9458;50.942;5.074;2023-05-10T09:36:16;14.90;99.90
18658;DHT22;9458;50.942;5.074;2023-05-10T09:38:50;14.80;99.90
18658;DHT22;9458;50.942;5.074;2023-05-10T09:41:18;14.80;99.90
18658;DHT22;9458;50.942;5.074;2023-05-10T09:43:47;14.80;99.90
18658;DHT22;9458;50.942;5.074;2023-05-10T09:46:15;14.80;99.90
18658;DHT22;9458;50.942;5.074;2023-05-10T09:48:44;14.80;99.90
18658;DHT22;9458;50.942;5.074;2023-05-10T09:51:19;14.80;99.90
18658;DHT22;9458;50.942;5.074;2023-05-10T09:54:09;14.90;99.90
18658;DHT22;9458;50.942;5.074;2023-05-10T09:56:36;14.90;99.90
18658;DHT22;9458;50.942;5.074;2023-05-10T09:59:07;14.90;99.90
18658;DHT22;9458;50.942;5.074;2023-05-10T10:01:35;14.90;99.90
18658;DHT22;9458;50.942;5.074;2023-05-10T10:04:04;15.00;99.90
18658;DHT22;9458;50.942;5.074;2023-05-10T10:06:42;15.00;99.90
18658;DHT22;9458;50.942;5.074;2023-05-10T10:09:22;15.00;99.90
18658;DHT22;9458;50.942;5.074;2023-05-10T10:11:54;15.10;99.90
18658;DHT22;9458;50.942;5.074;2023-05-10T10:14:22;15.40;99.90
18658;DHT22;9458;50.942;5.074;2023-05-10T10:16:49;15.40;99.90
18658;DHT22;9458;50.942;5.074;2023-05-10T10:19:17;15.60;99.90
18658;DHT22;9458;50.942;5.074;2023-05-10T10:21:45;15.80;99.90
18658;DHT22;9458;50.942;5.074;2023-05-10T10:24:14;15.90;99.90
18658;DHT22;9458;50.942;5.074;2023-05-10T10:26:44;15.80;99.90
18658;DHT22;9458;50.942;5.074;2023-05-10T10:29:21;15.60;99.90
18658;DHT22;9458;50.942;5.074;2023-05-10T10:31:55;15.60;99.90
18658;DHT22;9458;50.942;5.074;2023-05-10T10:34:26;15.70;99.90
18658;DHT22;9458;50.942;5.074;2023-05-10T10:36:55;15.80;99.90
18658;DHT22;9458;50.942;5.074;2023-05-10T10:39:24;16.00;99.90
18658;DHT22;9458;50.942;5.074;2023-05-10T10:41:55;16.30;99.90
18658;DHT22;9458;50.942;5.074;2023-05-10T10:47:22;16.60;99.90
18658;DHT22;9458;50.942;5.074;2023-05-10T10:49:52;16.60;99.90
18658;DHT22;9458;50.942;5.074;2023-05-10T10:52:32;16.60;99.90
18658;DHT22;9458;50.942;5.074;2023-05-10T10:55:02;16.90;99.90
18658;DHT22;9458;50.942;5.074;2023-05-10T10:57:42;16.80;99.90
18658;DHT22;9458;50.942;5.074;2023-05-10T11:00:26;16.70;99.90
18658;DHT22;9458;50.942;5.074;2023-05-10T11:02:58;16.80;99.90
18658;DHT22;9458;50.942;5.074;2023-05-10T11:05:43;16.80;99.90
18658;DHT22;9458;50.942;5.074;2023-05-10T11:08:13;16.80;99.90
18658;DHT22;9458;50.942;5.074;2023-05-10T11:10:55;16.80;99.90
18658;DHT22;9458;50.942;5.074;2023-05-10T11:13:31;16.80;99.90
18658;DHT22;9458;50.942;5.074;2023-05-10T11:16:10;16.90;99.90
18658;DHT22;9458;50.942;5.074;2023-05-10T11:18:51;16.80;99.90
18658;DHT22;9458;50.942;5.074;2023-05-10T11:21:21;17.00;99.90
18658;DHT22;9458;50.942;5.074;2023-05-10T11:23:49;16.90;99.90
18658;DHT22;9458;50.942;5.074;2023-05-10T11:26:17;17.30;99.90
18658;DHT22;9458;50.942;5.074;2023-05-10T11:28:52;17.60;99.90
18658;DHT22;9458;50.942;5.074;2023-05-10T11:31:21;17.70;99.90
18658;DHT22;9458;50.942;5.074;2023-05-10T11:33:53;17.50;99.90
18658;DHT22;9458;50.942;5.074;2023-05-10T11:36:23;17.60;99.90
18658;DHT22;9458;50.942;5.074;2023-05-10T11:38:52;17.70;99.90
18658;DHT22;9458;50.942;5.074;2023-05-10T11:41:20;17.50;99.90
18658;DHT22;9458;50.942;5.074;2023-05-10T11:43:52;17.50;99.90
18658;DHT22;9458;50.942;5.074;2023-05-10T11:46:21;17.50;99.90
18658;DHT22;9458;50.942;5.074;2023-05-10T11:48:50;17.40;99.90
18658;DHT22;9458;50.942;5.074;2023-05-10T11:51:21;17.20;99.90
18658;DHT22;9458;50.942;5.074;2023-05-10T11:53:50;17.00;99.90
18658;DHT22;9458;50.942;5.074;2023-05-10T11:56:17;17.00;99.90
18658;DHT22;9458;50.942;5.074;2023-05-10T11:58:54;17.00;99.90
18658;DHT22;9458;50.942;5.074;2023-05-10T12:01:23;17.10;99.90
18658;DHT22;9458;50.942;5.074;2023-05-10T12:03:53;17.20;99.90
18658;DHT22;9458;50.942;5.074;2023-05-10T12:06:21;17.40;99.90
18658;DHT22;9458;50.942;5.074;2023-05-10T12:08:49;17.30;99.90
18658;DHT22;9458;50.942;5.074;2023-05-10T12:11:18;17.20;99.90
18658;DHT22;9458;50.942;5.074;2023-05-10T12:13:48;17.10;99.90
18658;DHT22;9458;50.942;5.074;2023-05-10T12:16:19;17.20;99.90
18658;DHT22;9458;50.942;5.074;2023-05-10T12:18:48;17.50;99.90
18658;DHT22;9458;50.942;5.074;2023-05-10T12:21:17;17.80;99.90
18658;DHT22;9458;50.942;5.074;2023-05-10T12:23:46;17.70;99.90
18658;DHT22;9458;50.942;5.074;2023-05-10T12:26:14;17.80;99.90
18658;DHT22;9458;50.942;5.074;2023-05-10T12:28:41;17.90;99.90
18658;DHT22;9458;50.942;5.074;2023-05-10T12:31:09;18.00;99.90
18658;DHT22;9458;50.942;5.074;2023-05-10T12:33:39;17.90;99.90
18658;DHT22;9458;50.942;5.074;2023-05-10T12:36:09;17.80;99.90
18658;DHT22;9458;50.942;5.074;2023-05-10T12:38:38;17.80;99.90
18658;DHT22;9458;50.942;5.074;2023-05-10T12:41:06;17.70;99.90
18658;DHT22;9458;50.942;5.074;2023-05-10T12:43:35;17.60;99.90
18658;DHT22;9458;50.942;5.074;2023-05-10T12:46:07;17.70;99.90
18658;DHT22;9458;50.942;5.074;2023-05-10T12:48:35;17.60;99.90
18658;DHT22;9458;50.942;5.074;2023-05-10T12:51:05;17.60;99.90
18658;DHT22;9458;50.942;5.074;2023-05-10T12:53:35;17.60;99.90
18658;DHT22;9458;50.942;5.074;2023-05-10T12:56:04;17.50;99.90
18658;DHT22;9458;50.942;5.074;2023-05-10T12:58:31;17.70;99.90
18658;DHT22;9458;50.942;5.074;2023-05-10T13:00:59;17.90;99.90
18658;DHT22;9458;50.942;5.074;2023-05-10T13:03:28;18.00;99.90
18658;DHT22;9458;50.942;5.074;2023-05-10T13:05:57;17.90;99.90
18658;DHT22;9458;50.942;5.074;2023-05-10T13:08:26;17.90;99.90
18658;DHT22;9458;50.942;5.074;2023-05-10T13:10:55;18.10;99.90
18658;DHT22;9458;50.942;5.074;2023-05-10T13:13:23;18.10;99.90
18658;DHT22;9458;50.942;5.074;2023-05-10T13:15:50;18.00;99.90
18658;DHT22;9458;50.942;5.074;2023-05-10T13:18:18;18.20;99.90
18658;DHT22;9458;50.942;5.074;2023-05-10T13:20:46;18.10;99.90
18658;DHT22;9458;50.942;5.074;2023-05-10T13:23:15;18.30;99.90
18658;DHT22;9458;50.942;5.074;2023-05-10T13:25:44;18.30;99.90
18658;DHT22;9458;50.942;5.074;2023-05-10T13:28:12;18.30;99.90
18658;DHT22;9458;50.942;5.074;2023-05-10T13:30:39;18.60;99.90
18658;DHT22;9458;50.942;5.074;2023-05-10T13:33:06;18.70;99.90
18658;DHT22;9458;50.942;5.074;2023-05-10T13:35:33;18.70;99.90
18658;DHT22;9458;50.942;5.074;2023-05-10T13:38:01;18.70;99.90
18658;DHT22;9458;50.942;5.074;2023-05-10T13:40:29;18.90;99.90
18658;DHT22;9458;50.942;5.074;2023-05-10T13:42:58;18.80;99.90
18658;DHT22;9458;50.942;5.074;2023-05-10T13:45:26;18.60;99.90
18658;DHT22;9458;50.942;5.074;2023-05-10T13:47:53;18.50;99.90
18658;DHT22;9458;50.942;5.074;2023-05-10T13:50:21;18.70;99.90
18658;DHT22;9458;50.942;5.074;2023-05-10T13:52:48;18.70;99.90
18658;DHT22;9458;50.942;5.074;2023-05-10T13:55:16;18.50;99.90
18658;DHT22;9458;50.942;5.074;2023-05-10T13:57:44;18.40;99.90
18658;DHT22;9458;50.942;5.074;2023-05-10T14:00:14;18.60;99.90
18658;DHT22;9458;50.942;5.074;2023-05-10T14:02:45;18.60;99.90
18658;DHT22;9458;50.942;5.074;2023-05-10T14:05:16;18.80;99.90
18658;DHT22;9458;50.942;5.074;2023-05-10T14:07:43;18.80;99.90
18658;DHT22;9458;50.942;5.074;2023-05-10T14:10:11;18.50;99.90
18658;DHT22;9458;50.942;5.074;2023-05-10T14:12:38;18.60;99.90
18658;DHT22;9458;50.942;5.074;2023-05-10T14:15:06;18.70;99.90
18658;DHT22;9458;50.942;5.074;2023-05-10T14:17:39;18.70;99.90
18658;DHT22;9458;50.942;5.074;2023-05-10T14:20:07;18.70;99.90
18658;DHT22;9458;50.942;5.074;2023-05-10T14:22:35;18.60;99.90
18658;DHT22;9458;50.942;5.074;2023-05-10T14:25:03;18.50;99.90
18658;DHT22;9458;50.942;5.074;2023-05-10T14:27:32;18.60;99.90
18658;DHT22;9458;50.942;5.074;2023-05-10T14:29:59;18.40;99.90
18658;DHT22;9458;50.942;5.074;2023-05-10T14:32:26;18.40;99.90
18658;DHT22;9458;50.942;5.074;2023-05-10T14:34:55;18.00;99.90
18658;DHT22;9458;50.942;5.074;2023-05-10T14:37:23;17.90;99.90
18658;DHT22;9458;50.942;5.074;2023-05-10T14:39:51;17.90;99.90
18658;DHT22;9458;50.942;5.074;2023-05-10T14:42:19;18.10;99.90
18658;DHT22;9458;50.942;5.074;2023-05-10T14:44:47;17.90;99.90
18658;DHT22;9458;50.942;5.074;2023-05-10T14:47:15;17.90;99.90
18658;DHT22;9458;50.942;5.074;2023-05-10T14:49:43;17.90;99.90
18658;DHT22;9458;50.942;5.074;2023-05-10T14:52:13;18.00;99.90
18658;DHT22;9458;50.942;5.074;2023-05-10T14:54:42;18.20;99.90
18658;DHT22;9458;50.942;5.074;2023-05-10T14:57:09;18.00;99.90
18658;DHT22;9458;50.942;5.074;2023-05-10T14:59:37;18.30;99.90
18658;DHT22;9458;50.942;5.074;2023-05-10T15:02:05;18.50;99.90
18658;DHT22;9458;50.942;5.074;2023-05-10T15:04:34;18.60;99.90
18658;DHT22;9458;50.942;5.074;2023-05-10T15:07:02;18.50;99.90
18658;DHT22;9458;50.942;5.074;2023-05-10T15:09:32;18.50;99.90
18658;DHT22;9458;50.942;5.074;2023-05-10T15:12:02;18.50;99.90
18658;DHT22;9458;50.942;5.074;2023-05-10T15:14:31;18.40;99.90
18658;DHT22;9458;50.942;5.074;2023-05-10T15:16:58;18.40;99.90
18658;DHT22;9458;50.942;5.074;2023-05-10T15:19:26;17.80;99.90
18658;DHT22;9458;50.942;5.074;2023-05-10T15:21:55;18.40;99.90
18658;DHT22;9458;50.942;5.074;2023-05-10T15:24:22;18.30;99.90
18658;DHT22;9458;50.942;5.074;2023-05-10T15:26:51;18.30;99.90
18658;DHT22;9458;50.942;5.074;2023-05-10T15:29:18;18.20;99.90
18658;DHT22;9458;50.942;5.074;2023-05-10T15:31:47;18.30;99.90
18658;DHT22;9458;50.942;5.074;2023-05-10T15:34:15;18.40;99.90
18658;DHT22;9458;50.942;5.074;2023-05-10T15:36:43;18.50;99.90
18658;DHT22;9458;50.942;5.074;2023-05-10T15:39:11;18.30;99.90
18658;DHT22;9458;50.942;5.074;2023-05-10T15:41:38;18.30;99.90
18658;DHT22;9458;50.942;5.074;2023-05-10T15:44:07;18.20;99.90
18658;DHT22;9458;50.942;5.074;2023-05-10T15:46:34;18.00;99.90
18658;DHT22;9458;50.942;5.074;2023-05-10T15:49:04;17.70;99.90
18658;DHT22;9458;50.942;5.074;2023-05-10T15:51:32;17.70;99.90
18658;DHT22;9458;50.942;5.074;2023-05-10T15:54:00;17.60;99.90
18658;DHT22;9458;50.942;5.074;2023-05-10T15:56:28;17.70;99.90
18658;DHT22;9458;50.942;5.074;2023-05-10T15:58:56;17.80;99.90
18658;DHT22;9458;50.942;5.074;2023-05-10T16:01:25;17.90;99.90
18658;DHT22;9458;50.942;5.074;2023-05-10T16:03:53;17.80;99.90
18658;DHT22;9458;50.942;5.074;2023-05-10T16:06:20;17.70;99.90
18658;DHT22;9458;50.942;5.074;2023-05-10T16:08:47;17.60;99.90
18658;DHT22;9458;50.942;5.074;2023-05-10T16:11:15;17.60;99.90